EDT,Max TemperatureF,Mean TemperatureF,Min TemperatureF,Max Dew PointF,MeanDew PointF,Min DewpointF,Max Humidity, Mean Humidity, Min Humidity, Max Sea Level PressureIn, Mean Sea Level PressureIn, Min Sea Level PressureIn, Max VisibilityMiles, Mean VisibilityMiles, Min VisibilityMiles, Max Wind SpeedMPH, Mean Wind SpeedMPH, Max Gust SpeedMPH,PrecipitationIn, CloudCover, Events, WindDirDegrees
2014-3-1,40,27,14,29,14,-2,75,55,34,30.25,30.17,30.06,10,10,10,15,10,21,0.00,4,,214
2014-3-2,39,27,14,29,22,7,92,78,64,30.10,30.02,29.96,10,5,0,20,9,25,0.07,8,Fog-Snow,299
2014-3-3,14,8,2,4,-5,-10,73,61,48,30.37,30.25,30.10,10,10,10,17,10,23,0.00,2,,320
2014-3-4,32,17,2,5,0,-5,79,53,27,30.37,30.27,30.17,10,10,10,9,4,14,0.00,1,,210
2014-3-5,29,23,16,9,6,2,62,48,34,30.40,30.26,30.15,10,10,10,16,8,19,0.00,4,,305
2014-3-6,26,18,9,12,7,1,73,62,50,30.48,30.40,30.30,10,10,10,18,11,25,0.00,1,,118
2014-3-7,42,30,18,27,18,10,84,69,54,30.26,30.11,29.95,10,10,10,16,7,22,0.00,2,,176
2014-3-8,44,37,29,32,29,25,100,79,57,29.99,29.94,29.91,10,5,1,21,12,28,0.01,6,Rain-Snow,279
2014-3-9,32,25,17,26,18,13,92,73,53,30.17,30.04,29.93,10,8,1,23,13,30,T,5,Snow,284
2014-3-10,52,42,32,33,26,19,64,54,44,29.95,29.78,29.65,10,10,10,24,16,32,0.00,2,,245
2014-3-11,60,52,44,38,36,33,70,56,42,29.71,29.66,29.63,10,10,10,31,11,43,0.00,1,,254
2014-3-12,52,33,14,48,32,10,100,78,56,29.62,29.30,29.04,10,4,0,33,15,45,0.81,8,Fog-Rain-Snow,272
2014-3-13,19,10,1,11,2,-5,88,73,52,30.15,29.78,29.54,10,4,0,32,22,41,0.00,6,Fog-Snow,289
2014-3-14,53,37,20,28,18,7,57,46,35,30.12,29.97,29.77,10,10,10,30,14,40,0.00,4,,217
2014-3-15,46,37,28,37,29,22,92,69,45,30.10,29.87,29.73,10,10,4,31,15,42,0.08,6,Rain,272
2014-3-16,28,24,19,21,12,4,84,61,37,30.20,30.12,29.96,10,9,2,17,8,20,0.01,4,Snow,6
2014-3-17,26,21,16,19,14,9,88,78,68,30.03,29.95,29.86,10,6,1,14,7,17,0.02,8,Snow,108
2014-3-18,38,31,23,23,20,17,88,70,51,30.15,30.07,29.93,10,10,10,20,10,26,0.00,7,,139
2014-3-19,44,37,30,40,30,19,85,74,63,30.12,29.93,29.75,10,9,2,24,11,34,0.06,7,Rain,162
2014-3-20,41,36,31,40,28,22,89,77,64,30.00,29.87,29.75,10,8,1,25,17,38,0.03,8,Rain-Snow,264
2014-3-21,41,34,26,30,25,20,92,77,61,30.09,30.02,29.94,10,8,0,17,9,24,0.01,4,Fog-Snow,260
2014-3-22,49,40,30,33,27,23,72,56,39,30.07,29.93,29.75,10,10,10,29,15,36,0.00,4,,281
2014-3-23,30,22,14,23,15,5,81,60,39,30.25,30.10,30.01,10,10,7,23,14,29,0.00,6,,303
2014-3-24,26,18,10,6,3,-1,67,52,37,30.29,30.21,30.10,10,10,6,21,8,25,T,3,Snow,294
2014-3-25,31,25,18,19,12,5,68,57,46,30.09,29.94,29.83,10,9,1,24,7,29,T,6,Snow,283
2014-3-26,22,17,11,16,8,0,84,65,45,30.30,30.02,29.85,10,4,1,30,18,38,T,5,Snow,307
2014-3-27,45,29,13,18,10,1,67,42,16,30.33,30.22,30.01,10,10,10,23,11,29,0.00,3,,182
2014-3-28,59,48,37,45,37,18,85,61,37,30.14,29.95,29.87,10,10,10,25,14,36,0.02,6,Rain,236
2014-3-29,47,40,33,41,37,33,100,88,76,30.14,29.86,29.63,10,4,0,15,8,21,0.75,7,Fog-Rain,62
2014-3-30,37,33,28,37,29,22,100,82,64,30.04,29.79,29.65,10,5,0,31,19,39,0.08,8,Fog-Rain-Snow,324
2014-3-31,53,40,26,28,23,18,75,55,34,30.19,30.12,29.97,10,10,10,20,11,23,0.00,0,,305